createdAt,value
2018-02-06T00:00:27.163Z,7.90
2018-02-06T00:02:54.754Z,8.20
2018-02-06T00:05:22.279Z,7.73
2018-02-06T00:07:49.854Z,7.90
2018-02-06T00:10:17.968Z,8.33
2018-02-06T00:12:45.663Z,7.17
2018-02-06T00:15:13.298Z,8.33
2018-02-06T00:17:40.922Z,9.00
2018-02-06T00:20:11.233Z,6.17
2018-02-06T00:22:50.653Z,7.70
2018-02-06T00:25:18.246Z,9.83
2018-02-06T00:27:45.758Z,8.03
2018-02-06T00:30:13.399Z,7.20
2018-02-06T00:32:41.007Z,9.30
2018-02-06T00:35:08.721Z,6.90
2018-02-06T00:37:36.658Z,8.70
2018-02-06T00:40:04.626Z,7.50
2018-02-06T00:42:32.138Z,6.90
2018-02-06T00:44:59.978Z,7.97
2018-02-06T00:47:27.611Z,7.00
2018-02-06T00:49:55.124Z,7.67
2018-02-06T00:52:23.160Z,7.50
2018-02-06T00:54:50.823Z,6.70
2018-02-06T00:57:18.514Z,6.93
2018-02-06T00:59:46.159Z,6.87
2018-02-06T01:02:13.836Z,7.83
2018-02-06T01:04:41.423Z,7.23
2018-02-06T01:07:11.136Z,7.00
2018-02-06T01:09:39.131Z,10.50
2018-02-06T01:12:06.693Z,5.90
2018-02-06T01:14:34.319Z,7.03
2018-02-06T01:17:01.878Z,7.97
2018-02-06T01:19:29.905Z,7.40
2018-02-06T01:21:57.504Z,8.60
2018-02-06T01:24:25.434Z,8.63
2018-02-06T01:26:53.686Z,6.30
2018-02-06T01:29:21.359Z,7.83
2018-02-06T01:31:53.049Z,8.53
2018-02-06T01:34:28.832Z,7.00
2018-02-06T01:37:00.078Z,7.30
2018-02-06T01:39:28.039Z,6.97
2018-02-06T01:41:56.022Z,7.90
2018-02-06T01:44:23.689Z,7.30
2018-02-06T01:46:51.341Z,6.10
2018-02-06T01:49:23.174Z,7.67
2018-02-06T01:51:50.721Z,12.03
2018-02-06T01:54:18.320Z,7.90
2018-02-06T01:56:45.880Z,7.17
2018-02-06T01:59:13.543Z,7.33
2018-02-06T02:01:41.215Z,6.83
2018-02-06T02:04:09.083Z,6.80
2018-02-06T02:06:36.738Z,8.23
2018-02-06T02:09:04.665Z,7.40
2018-02-06T02:11:32.239Z,6.17
2018-02-06T02:13:59.793Z,7.17
2018-02-06T02:16:31.674Z,8.80
2018-02-06T02:19:03.936Z,8.97
2018-02-06T02:21:31.722Z,7.53
2018-02-06T02:23:59.521Z,7.80
2018-02-06T02:26:27.235Z,7.53
2018-02-06T02:28:54.908Z,7.40
2018-02-06T02:31:22.530Z,7.60
2018-02-06T02:33:50.074Z,6.07
2018-02-06T02:36:17.797Z,7.60
2018-02-06T02:38:45.394Z,6.50
2018-02-06T02:41:12.951Z,8.50
2018-02-06T04:39:50.627Z,8.90
2018-02-06T04:42:18.492Z,10.30
2018-02-06T04:44:47.152Z,8.23
2018-02-06T04:47:14.782Z,7.27
2018-02-06T04:49:42.297Z,8.70
2018-02-06T04:52:10.286Z,8.00
2018-02-06T04:54:37.840Z,11.70
2018-02-06T04:57:05.436Z,8.90
2018-02-06T04:59:32.957Z,10.67
2018-02-06T05:02:00.744Z,10.30
2018-02-06T05:04:28.257Z,7.23
2018-02-06T05:06:55.874Z,9.60
2018-02-06T05:09:23.941Z,8.93
2018-02-06T05:11:51.529Z,8.90
2018-02-06T05:14:19.050Z,9.70
2018-02-06T05:16:46.579Z,9.83
2018-02-06T05:19:14.215Z,11.23
2018-02-06T05:21:41.821Z,9.03
2018-02-06T05:24:09.513Z,10.00
2018-02-06T05:26:37.339Z,8.50
2018-02-06T05:29:04.881Z,12.40
2018-02-06T05:31:32.481Z,9.05
2018-02-06T05:34:00.417Z,11.38
2018-02-06T05:36:28.023Z,10.47
2018-02-06T05:38:55.650Z,10.70
2018-02-06T05:41:27.303Z,10.18
2018-02-06T05:43:55.334Z,9.60
2018-02-06T05:46:22.976Z,10.10
2018-02-06T05:49:15.690Z,9.60
2018-02-06T05:51:44.317Z,11.25
2018-02-06T05:54:11.842Z,10.10
2018-02-06T05:56:39.825Z,9.97
2018-02-06T05:59:11.212Z,10.57
2018-02-06T06:01:38.834Z,13.10
2018-02-06T06:04:11.182Z,8.50
2018-02-06T06:06:38.698Z,10.67
2018-02-06T06:09:06.662Z,10.00
2018-02-06T06:11:34.217Z,8.75
2018-02-06T06:14:01.866Z,9.47
2018-02-06T06:16:29.574Z,11.07
2018-02-06T06:18:57.174Z,7.60
2018-02-06T06:21:29.376Z,10.03
2018-02-06T06:23:57.038Z,10.03
2018-02-06T06:26:24.707Z,11.33
2018-02-06T06:28:52.347Z,10.87
2018-02-06T06:31:19.996Z,10.60
2018-02-06T06:33:47.653Z,9.50
2018-02-06T06:36:15.321Z,10.80
2018-02-06T06:38:47.311Z,8.32
2018-02-06T06:41:14.951Z,12.37
2018-02-06T06:43:42.620Z,11.50
2018-02-06T06:46:10.277Z,11.73
2018-02-06T06:48:37.886Z,9.03
2018-02-06T06:51:11.346Z,8.33
2018-02-06T06:53:38.956Z,9.18
2018-02-06T06:56:11.382Z,8.93
2018-02-06T06:58:38.986Z,11.53
2018-02-06T07:01:22.592Z,9.23
2018-02-06T07:03:50.106Z,10.77
2018-02-06T07:06:17.781Z,10.15
2018-02-06T07:08:47.315Z,9.43
2018-02-06T07:11:15.000Z,8.80
2018-02-06T07:13:42.941Z,8.90
2018-02-06T07:16:10.478Z,10.13
2018-02-06T07:18:38.071Z,11.40
2018-02-06T07:21:05.621Z,10.20
2018-02-06T07:23:33.185Z,10.50
2018-02-06T07:26:01.097Z,10.40
2018-02-06T07:28:28.715Z,9.20
2018-02-06T07:30:56.226Z,10.40
2018-02-06T07:33:23.835Z,10.17
2018-02-06T07:35:51.489Z,10.47
2018-02-06T07:38:18.998Z,8.90
2018-02-06T07:40:46.735Z,10.57
2018-02-06T07:43:14.446Z,10.17
2018-02-06T07:45:41.995Z,11.43
2018-02-06T07:48:09.739Z,10.83
2018-02-06T07:50:41.483Z,9.55
2018-02-06T07:53:09.046Z,10.57
2018-02-06T07:55:36.685Z,11.33
2018-02-06T07:58:04.360Z,8.65
2018-02-06T08:00:32.090Z,10.32
2018-02-06T08:02:59.738Z,8.57
2018-02-06T08:05:27.447Z,10.07
2018-02-06T08:07:59.358Z,9.70
2018-02-06T08:10:26.970Z,10.30
2018-02-06T08:12:59.321Z,9.70
2018-02-06T08:15:27.242Z,9.60
2018-02-06T08:17:54.916Z,10.67
2018-02-06T08:20:22.487Z,10.90
2018-02-06T08:22:53.246Z,8.57
2018-02-06T08:25:29.264Z,9.80
2018-02-06T08:27:56.922Z,11.47
2018-02-06T08:30:24.437Z,10.10
2018-02-06T08:32:52.135Z,10.93
2018-02-06T08:35:19.767Z,10.18
2018-02-06T08:37:53.331Z,11.10
2018-02-06T08:40:21.154Z,10.60
2018-02-06T08:42:48.661Z,11.70
2018-02-06T08:45:17.426Z,9.03
2018-02-06T08:47:45.010Z,9.90
2018-02-06T08:50:12.690Z,10.60
2018-02-06T08:52:40.389Z,11.70
2018-02-06T08:55:07.958Z,9.43
2018-02-06T08:57:35.510Z,9.87
2018-02-06T09:00:03.556Z,10.30
2018-02-06T09:02:35.290Z,11.67
2018-02-06T09:05:02.943Z,12.07
2018-02-06T09:07:30.618Z,8.90
2018-02-06T09:09:58.465Z,10.30
2018-02-06T09:12:29.623Z,10.37
2018-02-06T09:14:57.754Z,9.90
2018-02-06T09:17:25.734Z,10.80
2018-02-06T09:19:53.247Z,11.40
2018-02-06T09:22:22.646Z,10.70
2018-02-06T09:24:50.189Z,11.97
2018-02-06T09:27:23.599Z,9.33
2018-02-06T09:29:51.190Z,11.30
2018-02-06T09:32:18.700Z,10.70
2018-02-06T09:34:46.446Z,11.17
2018-02-06T09:37:14.032Z,10.77
2018-02-06T09:39:41.680Z,10.77
2018-02-06T09:42:09.356Z,11.70
2018-02-06T09:44:36.978Z,11.57
2018-02-06T09:47:04.637Z,11.73
2018-02-06T09:49:32.275Z,9.67
2018-02-06T09:52:05.524Z,9.57
2018-02-06T09:54:33.345Z,13.50
2018-02-06T09:57:01.118Z,11.30
2018-02-06T09:59:29.343Z,11.23
2018-02-06T10:01:56.975Z,10.13
2018-02-06T10:04:29.329Z,12.03
2018-02-06T10:06:56.962Z,9.87
2018-02-06T10:09:24.825Z,13.00
2018-02-06T10:11:52.357Z,11.60
2018-02-06T10:14:20.087Z,11.20
2018-02-06T10:16:47.610Z,10.57
2018-02-06T10:19:15.544Z,16.13
2018-02-06T10:21:43.129Z,9.57
2018-02-06T10:24:10.679Z,11.40
2018-02-06T10:26:38.265Z,10.60
2018-02-06T10:29:05.808Z,10.70
2018-02-06T10:31:33.820Z,11.63
2018-02-06T10:34:01.534Z,13.30
2018-02-06T10:36:29.514Z,10.35
2018-02-06T10:38:57.072Z,11.00
2018-02-06T10:41:25.064Z,8.23
2018-02-06T10:43:52.707Z,11.43
2018-02-06T10:46:20.243Z,11.17
2018-02-06T10:48:47.838Z,10.83
2018-02-06T10:51:15.501Z,11.00
2018-02-06T10:53:43.156Z,13.10
2018-02-06T10:56:10.832Z,11.10
2018-02-06T10:58:41.397Z,10.87
2018-02-06T11:01:09.000Z,11.60
2018-02-06T11:03:36.656Z,8.80
2018-02-06T11:06:04.205Z,10.00
2018-02-06T11:08:32.508Z,12.00
2018-02-06T11:11:05.390Z,10.73
2018-02-06T11:13:33.092Z,9.90
2018-02-06T11:16:05.622Z,10.20
2018-02-06T11:18:41.184Z,9.40
2018-02-06T11:21:08.727Z,10.40
2018-02-06T11:23:36.744Z,11.35
2018-02-06T11:26:11.102Z,12.10
2018-02-06T11:28:41.334Z,12.70
2018-02-06T11:31:09.030Z,11.13
2018-02-06T11:33:36.697Z,11.53
2018-02-06T11:36:04.319Z,10.03
2018-02-06T11:38:31.957Z,11.97
2018-02-06T11:40:59.812Z,9.83
2018-02-06T11:43:29.344Z,10.60
2018-02-06T11:45:57.134Z,10.40
2018-02-06T11:48:24.699Z,11.57
2018-02-06T11:50:52.330Z,9.67
2018-02-06T11:53:19.995Z,11.30
2018-02-06T11:55:47.632Z,10.20
2018-02-06T11:58:15.312Z,10.20
2018-02-06T12:00:43.393Z,11.87
2018-02-06T12:03:11.023Z,11.10
2018-02-06T12:05:38.740Z,11.10
2018-02-06T12:08:06.365Z,9.60
2018-02-06T12:10:35.462Z,11.33
2018-02-06T12:13:03.159Z,10.80
2018-02-06T12:15:30.808Z,11.30
2018-02-06T12:17:58.887Z,12.17
2018-02-06T12:20:26.478Z,12.70
2018-02-06T12:22:53.995Z,9.73
2018-02-06T12:25:21.914Z,8.97
2018-02-06T12:27:49.919Z,14.27
2018-02-06T12:30:17.525Z,12.13
2018-02-06T12:32:45.226Z,9.93
2018-02-06T12:35:13.903Z,10.37
2018-02-06T12:37:41.605Z,12.40
2018-02-06T12:40:15.611Z,12.63
2018-02-06T12:42:46.779Z,11.00
2018-02-06T12:45:14.374Z,9.57
2018-02-06T12:47:42.622Z,11.35
2018-02-06T12:50:17.413Z,12.10
2018-02-06T12:52:53.004Z,13.10
2018-02-06T12:55:20.602Z,11.90
2018-02-06T12:57:48.287Z,13.30
2018-02-06T13:00:17.334Z,10.97
2018-02-06T13:02:53.267Z,10.73
2018-02-06T13:05:20.876Z,9.87
2018-02-06T13:07:48.838Z,13.33
2018-02-06T13:10:16.790Z,10.30
2018-02-06T13:12:44.458Z,13.23
2018-02-06T13:15:12.107Z,8.43
2018-02-06T13:17:52.837Z,14.27
2018-02-06T13:20:23.394Z,10.77
2018-02-06T13:22:53.533Z,10.00
2018-02-06T13:25:23.446Z,9.83
2018-02-06T13:27:51.909Z,12.70
2018-02-06T13:30:19.447Z,10.53
2018-02-06T13:32:47.043Z,11.40
2018-02-06T13:35:14.793Z,10.03
2018-02-06T13:37:42.774Z,11.97
2018-02-06T13:40:10.422Z,15.10
2018-02-06T13:42:38.127Z,11.00
2018-02-06T13:45:05.758Z,12.68
2018-02-06T13:47:33.418Z,12.83
2018-02-06T13:50:01.064Z,10.77
2018-02-06T13:52:29.574Z,11.13
2018-02-06T13:54:57.191Z,11.17
2018-02-06T13:57:25.011Z,12.03
2018-02-06T13:59:52.558Z,11.63
2018-02-06T14:02:20.262Z,12.73
2018-02-06T14:04:47.834Z,14.40
2018-02-06T14:07:17.696Z,11.33
2018-02-06T14:09:45.268Z,13.40
2018-02-06T14:12:12.866Z,14.23
2018-02-06T14:14:41.656Z,14.50
2018-02-06T14:17:09.637Z,10.87
2018-02-06T14:19:37.311Z,11.87
2018-02-06T14:22:04.955Z,12.17
2018-02-06T14:24:35.496Z,10.10
2018-02-06T14:27:03.157Z,12.97
2018-02-06T14:29:30.803Z,10.70
2018-02-06T14:31:58.535Z,9.93
2018-02-06T14:34:26.157Z,10.63
2018-02-06T14:36:53.783Z,12.60
2018-02-06T14:39:21.720Z,10.63
2018-02-06T14:41:49.392Z,11.30
2018-02-06T14:44:16.995Z,12.57
2018-02-06T14:46:44.634Z,11.80
2018-02-06T14:49:12.536Z,13.97
2018-02-06T14:51:40.185Z,11.87
2018-02-06T14:54:07.852Z,12.07
2018-02-06T14:56:35.483Z,12.20
2018-02-06T14:59:03.206Z,15.07
2018-02-06T15:01:30.820Z,12.80
2018-02-06T15:03:58.473Z,16.33
2018-02-06T15:06:26.139Z,12.17
2018-02-06T15:08:54.049Z,11.20
2018-02-06T15:11:21.709Z,10.37
2018-02-06T15:13:49.390Z,17.10
2018-02-06T15:16:16.990Z,13.90
2018-02-06T15:18:44.642Z,12.07
2018-02-06T15:21:12.306Z,13.50
2018-02-06T15:23:39.948Z,12.47
2018-02-06T15:26:07.507Z,13.87
2018-02-06T15:28:35.490Z,12.93
2018-02-06T15:31:03.221Z,14.27
2018-02-06T15:33:30.794Z,13.03
2018-02-06T15:35:59.524Z,12.33
2018-02-06T15:38:27.174Z,14.40
2018-02-06T15:40:54.819Z,13.20
2018-02-06T15:43:22.493Z,11.47
2018-02-06T15:45:50.185Z,12.97
2018-02-06T15:48:17.795Z,12.17
2018-02-06T15:50:45.453Z,14.00
2018-02-06T15:53:13.124Z,15.17
2018-02-06T15:55:40.782Z,11.90
2018-02-06T15:58:08.459Z,12.17
2018-02-06T16:00:39.667Z,12.90
2018-02-06T16:03:10.281Z,16.20
2018-02-06T16:05:38.478Z,14.50
2018-02-06T16:08:06.457Z,11.90
2018-02-06T16:10:36.597Z,14.97
2018-02-06T16:13:08.523Z,14.17
2018-02-06T16:15:38.487Z,14.10
2018-02-06T16:18:08.132Z,13.20
2018-02-06T16:20:35.644Z,13.70
2018-02-06T16:23:03.246Z,15.33
2018-02-06T16:25:31.077Z,15.67
2018-02-06T16:27:59.655Z,15.13
2018-02-06T16:30:27.256Z,12.60
2018-02-06T16:32:55.087Z,12.10
2018-02-06T16:35:22.633Z,13.13
2018-02-06T16:37:50.230Z,12.57
2018-02-06T16:40:17.744Z,14.23
2018-02-06T16:42:45.438Z,12.05
2018-02-06T16:45:13.037Z,12.53
2018-02-06T16:47:40.557Z,12.50
2018-02-06T16:50:08.401Z,12.07
2018-02-06T16:52:36.038Z,13.27
2018-02-06T16:55:03.655Z,14.73
2018-02-06T16:57:31.543Z,13.37
2018-02-06T16:59:59.071Z,12.80
2018-02-06T17:02:38.589Z,12.02
2018-02-06T17:05:06.165Z,13.62
2018-02-06T17:07:35.907Z,12.97
2018-02-06T17:10:03.465Z,17.00
2018-02-06T17:12:31.411Z,13.20
2018-02-06T17:14:59.153Z,11.70
2018-02-06T17:17:26.742Z,13.50
2018-02-06T17:19:54.291Z,10.10
2018-02-06T17:22:21.880Z,12.25
2018-02-06T17:24:49.642Z,13.25
2018-02-06T17:27:17.219Z,13.90
2018-02-06T17:29:44.834Z,15.63
2018-02-06T17:32:12.380Z,15.77
2018-02-06T17:34:40.045Z,15.13
2018-02-06T17:37:07.660Z,14.30
2018-02-06T17:39:35.321Z,14.80
2018-02-06T17:42:03.005Z,12.70
2018-02-06T17:44:30.655Z,12.60
2018-02-06T17:46:58.301Z,11.93
2018-02-06T17:49:25.950Z,12.67
2018-02-06T17:51:53.644Z,11.90
2018-02-06T17:54:21.262Z,11.97
2018-02-06T17:56:49.184Z,11.30
2018-02-06T17:59:17.207Z,18.53
2018-02-06T18:01:44.882Z,11.87
2018-02-06T18:04:12.494Z,10.93
2018-02-06T18:06:40.218Z,14.50
2018-02-06T18:09:07.843Z,13.27
2018-02-06T18:11:35.510Z,11.43
2018-02-06T18:14:03.183Z,12.90
2018-02-06T18:16:30.847Z,13.97
2018-02-06T18:18:58.510Z,17.53
2018-02-06T18:21:26.164Z,13.17
2018-02-06T18:23:53.794Z,12.30
2018-02-06T18:26:21.495Z,12.03
2018-02-06T18:28:49.207Z,12.03
2018-02-06T18:31:17.255Z,13.53
2018-02-06T18:33:44.852Z,16.20
2018-02-06T18:36:12.426Z,13.03
2018-02-06T18:38:39.946Z,14.53
2018-02-06T18:41:07.798Z,13.07
2018-02-06T18:43:35.343Z,13.47
2018-02-06T18:46:02.930Z,14.27
2018-02-06T18:48:30.954Z,12.77
2018-02-06T18:50:58.506Z,14.03
2018-02-06T18:53:26.255Z,10.40
2018-02-06T18:55:53.824Z,10.27
2018-02-06T18:58:21.460Z,12.97
2018-02-06T19:00:49.163Z,12.13
2018-02-06T19:03:16.787Z,12.10
2018-02-06T19:05:44.462Z,14.07
2018-02-06T19:08:12.173Z,12.63
2018-02-06T19:10:39.807Z,11.50
2018-02-06T19:13:07.491Z,11.20
2018-02-06T19:15:35.112Z,14.10
2018-02-06T19:18:02.773Z,11.30
2018-02-06T19:20:30.428Z,10.23
2018-02-06T19:22:58.197Z,12.40
2018-02-06T19:25:25.743Z,12.97
2018-02-06T19:27:57.101Z,12.40
2018-02-06T19:30:27.241Z,12.03
2018-02-06T19:33:01.788Z,12.10
2018-02-06T19:35:31.158Z,12.60
2018-02-06T19:37:58.834Z,13.00
2018-02-06T19:40:26.621Z,12.77
2018-02-06T19:42:54.195Z,13.57
2018-02-06T19:45:22.159Z,12.60
2018-02-06T19:47:54.096Z,11.73
2018-02-06T19:50:21.686Z,14.33
2018-02-06T19:52:49.669Z,10.97
2018-02-06T19:55:17.327Z,10.77
2018-02-06T19:57:44.970Z,13.47
2018-02-06T20:00:12.935Z,11.20
2018-02-06T20:02:40.976Z,13.85
2018-02-06T20:05:08.654Z,11.67
2018-02-06T20:07:36.243Z,30.63
2018-02-06T20:10:11.362Z,13.63
2018-02-06T20:12:39.337Z,14.67
2018-02-06T20:15:07.286Z,11.83
2018-02-06T20:17:35.757Z,11.10
2018-02-06T20:20:03.360Z,11.70
2018-02-06T20:22:31.062Z,12.77
2018-02-06T20:24:58.958Z,13.65
2018-02-06T20:27:27.032Z,12.82
2018-02-06T20:29:55.017Z,14.43
2018-02-06T20:32:22.930Z,12.70
2018-02-06T20:34:50.855Z,12.10
2018-02-06T20:37:18.375Z,11.90
2018-02-06T20:39:53.397Z,11.60
2018-02-06T20:42:34.952Z,13.17
2018-02-06T20:45:02.469Z,17.73
2018-02-06T20:47:30.456Z,12.57
2018-02-06T20:49:59.862Z,11.67
2018-02-06T20:52:27.569Z,11.10
2018-02-06T20:54:55.144Z,11.30
2018-02-06T20:57:22.745Z,13.50
2018-02-06T20:59:50.374Z,12.93
2018-02-06T21:02:18.553Z,11.95
2018-02-06T21:04:46.070Z,12.33
2018-02-06T21:07:13.881Z,14.00
2018-02-06T21:09:41.426Z,15.53
2018-02-06T21:12:08.978Z,13.60
2018-02-06T21:14:36.814Z,14.90
2018-02-06T21:17:04.467Z,13.17
2018-02-06T21:19:32.021Z,11.57
2018-02-06T21:21:59.762Z,12.43
2018-02-06T21:24:27.382Z,11.90
2018-02-06T21:26:55.062Z,13.43
2018-02-06T21:29:23.213Z,13.18
2018-02-06T21:31:51.163Z,12.50
2018-02-06T21:34:18.827Z,13.63
2018-02-06T21:36:46.827Z,12.57
2018-02-06T21:39:14.374Z,13.30
2018-02-06T21:41:42.242Z,13.10
2018-02-06T21:44:09.833Z,10.93
2018-02-06T21:46:37.461Z,13.17
2018-02-06T21:49:05.281Z,12.73
2018-02-06T21:51:32.816Z,13.90
2018-02-06T21:54:00.506Z,14.67
2018-02-06T21:56:28.287Z,13.23
2018-02-06T21:58:55.854Z,13.67
2018-02-06T22:01:23.464Z,14.67
2018-02-06T22:03:51.108Z,11.93
2018-02-06T22:06:19.068Z,14.40
2018-02-06T22:08:47.732Z,14.60
2018-02-06T22:11:15.336Z,13.27
2018-02-06T22:13:42.984Z,12.83
2018-02-06T22:16:10.689Z,12.40
2018-02-06T22:18:38.315Z,14.13
2018-02-06T22:21:05.988Z,13.23
2018-02-06T22:23:33.614Z,10.95
2018-02-06T22:26:01.160Z,12.43
2018-02-06T22:28:29.164Z,13.17
2018-02-06T22:30:56.842Z,11.83
2018-02-06T22:33:24.488Z,15.10
2018-02-06T22:35:52.165Z,11.95
2018-02-06T22:38:19.822Z,12.33
2018-02-06T22:40:47.483Z,14.07
2018-02-06T22:43:15.137Z,13.90
2018-02-06T22:45:42.770Z,13.02
2018-02-06T22:48:10.460Z,13.80
2018-02-06T22:50:38.089Z,13.77
2018-02-06T22:53:06.189Z,20.53
2018-02-06T22:55:34.208Z,13.73
2018-02-06T22:58:02.448Z,13.00
2018-02-06T23:00:30.400Z,15.23
2018-02-06T23:02:58.067Z,13.00
2018-02-06T23:05:25.736Z,13.10
2018-02-06T23:07:53.355Z,13.30
2018-02-06T23:10:21.694Z,12.57
2018-02-06T23:12:49.306Z,10.93
2018-02-06T23:15:16.980Z,13.27
2018-02-06T23:17:44.759Z,10.13
2018-02-06T23:20:12.290Z,13.70
2018-02-06T23:22:39.963Z,12.33
2018-02-06T23:25:07.819Z,13.20
2018-02-06T23:27:35.478Z,13.93
2018-02-06T23:30:03.116Z,14.15
2018-02-06T23:32:31.259Z,13.97
2018-02-06T23:34:59.255Z,12.43
2018-02-06T23:37:26.926Z,11.23
2018-02-06T23:39:54.938Z,11.82
2018-02-06T23:42:22.560Z,14.10
2018-02-06T23:44:50.546Z,12.50
2018-02-06T23:47:18.199Z,12.60
2018-02-06T23:49:48.011Z,13.60
2018-02-06T23:52:15.656Z,13.40
2018-02-06T23:54:43.186Z,14.33
2018-02-06T23:57:10.726Z,13.53
2018-02-06T23:59:38.396Z,13.65
